sensor_id;sensor_type;location;lat;lon;timestamp;P1;durP1;ratioP1;P2;durP2;ratioP2
25327;SDS011;13279;51.300;12.394;2022-07-23T03:16:26;15.50;;;6.70;;
25327;SDS011;13279;51.300;12.394;2022-07-23T03:18:55;9.67;;;6.17;;
25327;SDS011;13279;51.300;12.394;2022-07-23T03:21:22;8.17;;;6.47;;
25327;SDS011;13279;51.300;12.394;2022-07-23T03:23:51;6.60;;;5.87;;
25327;SDS011;13279;51.300;12.394;2022-07-23T03:26:19;11.37;;;6.40;;
25327;SDS011;13279;51.300;12.394;2022-07-23T03:28:51;8.30;;;6.30;;
25327;SDS011;13279;51.300;12.394;2022-07-23T03:31:19;9.60;;;6.53;;
25327;SDS011;13279;51.300;12.394;2022-07-23T03:33:48;7.30;;;6.23;;
25327;SDS011;13279;51.300;12.394;2022-07-23T03:36:15;9.97;;;6.70;;
25327;SDS011;13279;51.300;12.394;2022-07-23T03:38:44;12.67;;;6.63;;
25327;SDS011;13279;51.300;12.394;2022-07-23T03:41:12;11.10;;;7.60;;
25327;SDS011;13279;51.300;12.394;2022-07-23T03:43:39;9.40;;;6.33;;
25327;SDS011;13279;51.300;12.394;2022-07-23T03:46:07;14.90;;;7.07;;
25327;SDS011;13279;51.300;12.394;2022-07-23T03:48:35;10.87;;;7.40;;
25327;SDS011;13279;51.300;12.394;2022-07-23T03:51:04;11.43;;;7.20;;
25327;SDS011;13279;51.300;12.394;2022-07-23T03:53:33;9.27;;;6.83;;
25327;SDS011;13279;51.300;12.394;2022-07-23T03:56:00;10.90;;;7.33;;
25327;SDS011;13279;51.300;12.394;2022-07-23T03:58:29;10.90;;;7.83;;
25327;SDS011;13279;51.300;12.394;2022-07-23T04:00:56;10.87;;;7.83;;
25327;SDS011;13279;51.300;12.394;2022-07-23T04:03:24;14.23;;;8.13;;
25327;SDS011;13279;51.300;12.394;2022-07-23T04:05:52;11.73;;;8.43;;
25327;SDS011;13279;51.300;12.394;2022-07-23T04:08:22;11.73;;;7.27;;
25327;SDS011;13279;51.300;12.394;2022-07-23T04:10:51;15.07;;;7.67;;
25327;SDS011;13279;51.300;12.394;2022-07-23T04:13:21;11.03;;;6.50;;
25327;SDS011;13279;51.300;12.394;2022-07-23T04:15:49;10.37;;;6.37;;
25327;SDS011;13279;51.300;12.394;2022-07-23T04:18:17;16.03;;;6.30;;
25327;SDS011;13279;51.300;12.394;2022-07-23T04:20:56;11.23;;;6.07;;
25327;SDS011;13279;51.300;12.394;2022-07-23T04:23:26;12.13;;;6.17;;
25327;SDS011;13279;51.300;12.394;2022-07-23T04:25:54;12.10;;;6.73;;
25327;SDS011;13279;51.300;12.394;2022-07-23T04:28:22;6.50;;;5.80;;
25327;SDS011;13279;51.300;12.394;2022-07-23T04:30:49;13.33;;;6.17;;
25327;SDS011;13279;51.300;12.394;2022-07-23T04:33:17;15.00;;;6.17;;
25327;SDS011;13279;51.300;12.394;2022-07-23T04:35:47;10.13;;;6.50;;
25327;SDS011;13279;51.300;12.394;2022-07-23T04:38:18;14.70;;;6.13;;
25327;SDS011;13279;51.300;12.394;2022-07-23T04:40:50;16.10;;;6.27;;
25327;SDS011;13279;51.300;12.394;2022-07-23T04:43:18;12.47;;;6.27;;
25327;SDS011;13279;51.300;12.394;2022-07-23T04:45:48;13.57;;;7.00;;
25327;SDS011;13279;51.300;12.394;2022-07-23T04:48:16;9.17;;;7.07;;
25327;SDS011;13279;51.300;12.394;2022-07-23T04:50:47;15.53;;;7.33;;
25327;SDS011;13279;51.300;12.394;2022-07-23T04:53:21;9.47;;;6.67;;
25327;SDS011;13279;51.300;12.394;2022-07-23T04:55:53;12.07;;;7.03;;
25327;SDS011;13279;51.300;12.394;2022-07-23T04:58:21;10.20;;;7.50;;
25327;SDS011;13279;51.300;12.394;2022-07-23T05:00:48;13.47;;;7.70;;
25327;SDS011;13279;51.300;12.394;2022-07-23T05:03:16;11.77;;;8.10;;
25327;SDS011;13279;51.300;12.394;2022-07-23T05:05:46;15.17;;;8.87;;
25327;SDS011;13279;51.300;12.394;2022-07-23T05:08:16;16.50;;;8.33;;
25327;SDS011;13279;51.300;12.394;2022-07-23T05:10:49;16.20;;;8.20;;
25327;SDS011;13279;51.300;12.394;2022-07-23T05:13:19;19.43;;;9.23;;
25327;SDS011;13279;51.300;12.394;2022-07-23T05:15:50;20.80;;;8.83;;
25327;SDS011;13279;51.300;12.394;2022-07-23T05:18:18;13.57;;;9.33;;
25327;SDS011;13279;51.300;12.394;2022-07-23T05:20:45;18.13;;;9.07;;
25327;SDS011;13279;51.300;12.394;2022-07-23T05:23:17;16.60;;;8.43;;
25327;SDS011;13279;51.300;12.394;2022-07-23T05:25:46;16.27;;;8.63;;
25327;SDS011;13279;51.300;12.394;2022-07-23T05:28:15;17.70;;;9.53;;
25327;SDS011;13279;51.300;12.394;2022-07-23T05:30:44;13.43;;;9.30;;
25327;SDS011;13279;51.300;12.394;2022-07-23T05:33:14;23.43;;;10.10;;
25327;SDS011;13279;51.300;12.394;2022-07-23T05:35:42;17.20;;;9.37;;
25327;SDS011;13279;51.300;12.394;2022-07-23T05:38:23;13.53;;;9.20;;
25327;SDS011;13279;51.300;12.394;2022-07-23T05:40:53;23.73;;;9.57;;
25327;SDS011;13279;51.300;12.394;2022-07-23T05:43:21;20.20;;;9.97;;
25327;SDS011;13279;51.300;12.394;2022-07-23T05:45:50;19.27;;;11.23;;
25327;SDS011;13279;51.300;12.394;2022-07-23T05:48:17;15.60;;;10.63;;
25327;SDS011;13279;51.300;12.394;2022-07-23T05:51:05;20.27;;;10.97;;
25327;SDS011;13279;51.300;12.394;2022-07-23T05:53:33;14.60;;;10.50;;
25327;SDS011;13279;51.300;12.394;2022-07-23T05:56:15;18.13;;;9.50;;
25327;SDS011;13279;51.300;12.394;2022-07-23T05:58:44;17.93;;;9.50;;
25327;SDS011;13279;51.300;12.394;2022-07-23T06:01:16;24.17;;;9.47;;
25327;SDS011;13279;51.300;12.394;2022-07-23T06:03:59;13.70;;;9.63;;
25327;SDS011;13279;51.300;12.394;2022-07-23T06:06:32;18.73;;;8.93;;
25327;SDS011;13279;51.300;12.394;2022-07-23T06:09:01;16.87;;;9.00;;
25327;SDS011;13279;51.300;12.394;2022-07-23T06:11:29;13.77;;;9.40;;
25327;SDS011;13279;51.300;12.394;2022-07-23T06:13:57;16.57;;;9.40;;
25327;SDS011;13279;51.300;12.394;2022-07-23T06:16:37;12.63;;;8.47;;
25327;SDS011;13279;51.300;12.394;2022-07-23T06:19:05;10.57;;;7.53;;
25327;SDS011;13279;51.300;12.394;2022-07-23T06:21:32;15.33;;;8.30;;
25327;SDS011;13279;51.300;12.394;2022-07-23T06:24:00;19.20;;;7.67;;
25327;SDS011;13279;51.300;12.394;2022-07-23T06:26:27;15.57;;;7.70;;
25327;SDS011;13279;51.300;12.394;2022-07-23T06:28:55;11.63;;;7.47;;
25327;SDS011;13279;51.300;12.394;2022-07-23T06:31:23;9.97;;;7.03;;
25327;SDS011;13279;51.300;12.394;2022-07-23T06:33:52;14.57;;;7.87;;
25327;SDS011;13279;51.300;12.394;2022-07-23T06:36:19;13.70;;;6.87;;
25327;SDS011;13279;51.300;12.394;2022-07-23T06:38:47;17.53;;;7.90;;
25327;SDS011;13279;51.300;12.394;2022-07-23T06:41:15;13.70;;;7.20;;
25327;SDS011;13279;51.300;12.394;2022-07-23T06:43:44;8.53;;;6.60;;
25327;SDS011;13279;51.300;12.394;2022-07-23T06:46:14;12.40;;;6.67;;
25327;SDS011;13279;51.300;12.394;2022-07-23T06:48:42;11.03;;;7.03;;
25327;SDS011;13279;51.300;12.394;2022-07-23T06:51:11;15.27;;;6.93;;
25327;SDS011;13279;51.300;12.394;2022-07-23T06:53:38;11.33;;;6.60;;
25327;SDS011;13279;51.300;12.394;2022-07-23T06:56:08;10.03;;;7.30;;
25327;SDS011;13279;51.300;12.394;2022-07-23T06:58:38;12.83;;;7.20;;
25327;SDS011;13279;51.300;12.394;2022-07-23T07:01:05;15.87;;;8.27;;
25327;SDS011;13279;51.300;12.394;2022-07-23T07:03:34;9.33;;;6.87;;
25327;SDS011;13279;51.300;12.394;2022-07-23T07:06:01;12.93;;;6.97;;
25327;SDS011;13279;51.300;12.394;2022-07-23T07:08:30;13.17;;;6.63;;
25327;SDS011;13279;51.300;12.394;2022-07-23T07:10:57;11.23;;;7.67;;
25327;SDS011;13279;51.300;12.394;2022-07-23T07:13:25;11.30;;;6.87;;
25327;SDS011;13279;51.300;12.394;2022-07-23T07:15:52;11.10;;;6.60;;
25327;SDS011;13279;51.300;12.394;2022-07-23T07:18:20;10.87;;;6.00;;
25327;SDS011;13279;51.300;12.394;2022-07-23T07:20:48;14.93;;;6.43;;
25327;SDS011;13279;51.300;12.394;2022-07-23T07:23:15;8.63;;;6.60;;
25327;SDS011;13279;51.300;12.394;2022-07-23T07:25:44;8.30;;;5.17;;
25327;SDS011;13279;51.300;12.394;2022-07-23T07:28:12;6.97;;;5.47;;
25327;SDS011;13279;51.300;12.394;2022-07-23T07:30:39;8.20;;;4.93;;
25327;SDS011;13279;51.300;12.394;2022-07-23T07:33:07;10.30;;;6.20;;
25327;SDS011;13279;51.300;12.394;2022-07-23T07:35:35;12.60;;;6.57;;
25327;SDS011;13279;51.300;12.394;2022-07-23T07:38:02;14.07;;;6.67;;
25327;SDS011;13279;51.300;12.394;2022-07-23T07:40:29;11.10;;;6.43;;
25327;SDS011;13279;51.300;12.394;2022-07-23T07:42:58;9.03;;;6.17;;
25327;SDS011;13279;51.300;12.394;2022-07-23T07:45:27;12.67;;;7.00;;
25327;SDS011;13279;51.300;12.394;2022-07-23T07:47:55;15.60;;;9.03;;
25327;SDS011;13279;51.300;12.394;2022-07-23T07:50:22;11.93;;;7.80;;
25327;SDS011;13279;51.300;12.394;2022-07-23T07:52:50;13.07;;;7.83;;
25327;SDS011;13279;51.300;12.394;2022-07-23T07:55:18;12.80;;;7.67;;
25327;SDS011;13279;51.300;12.394;2022-07-23T07:57:45;18.87;;;8.63;;
25327;SDS011;13279;51.300;12.394;2022-07-23T08:00:15;12.90;;;7.77;;
25327;SDS011;13279;51.300;12.394;2022-07-23T08:02:44;18.50;;;8.60;;
25327;SDS011;13279;51.300;12.394;2022-07-23T08:05:13;13.57;;;8.60;;
25327;SDS011;13279;51.300;12.394;2022-07-23T08:07:40;12.50;;;8.87;;
25327;SDS011;13279;51.300;12.394;2022-07-23T08:10:08;14.07;;;8.53;;
25327;SDS011;13279;51.300;12.394;2022-07-23T08:12:40;15.00;;;8.37;;
25327;SDS011;13279;51.300;12.394;2022-07-23T08:15:10;13.03;;;9.33;;
25327;SDS011;13279;51.300;12.394;2022-07-23T08:17:40;14.33;;;8.73;;
25327;SDS011;13279;51.300;12.394;2022-07-23T08:20:09;11.67;;;7.90;;
25327;SDS011;13279;51.300;12.394;2022-07-23T08:22:45;16.07;;;8.63;;
25327;SDS011;13279;51.300;12.394;2022-07-23T08:25:14;14.27;;;9.23;;
25327;SDS011;13279;51.300;12.394;2022-07-23T08:27:45;13.47;;;8.90;;
25327;SDS011;13279;51.300;12.394;2022-07-23T08:30:12;18.90;;;9.07;;
25327;SDS011;13279;51.300;12.394;2022-07-23T08:32:55;12.27;;;7.90;;
25327;SDS011;13279;51.300;12.394;2022-07-23T08:35:25;14.40;;;8.73;;
25327;SDS011;13279;51.300;12.394;2022-07-23T08:37:56;15.63;;;8.27;;
25327;SDS011;13279;51.300;12.394;2022-07-23T08:40:25;12.53;;;8.70;;
25327;SDS011;13279;51.300;12.394;2022-07-23T08:42:53;16.23;;;8.97;;
25327;SDS011;13279;51.300;12.394;2022-07-23T08:45:22;12.60;;;9.00;;
25327;SDS011;13279;51.300;12.394;2022-07-23T08:47:52;14.43;;;9.10;;
25327;SDS011;13279;51.300;12.394;2022-07-23T08:50:22;14.40;;;9.80;;
25327;SDS011;13279;51.300;12.394;2022-07-23T08:52:51;17.37;;;9.80;;
25327;SDS011;13279;51.300;12.394;2022-07-23T08:55:20;14.43;;;9.87;;
25327;SDS011;13279;51.300;12.394;2022-07-23T08:57:50;11.37;;;8.73;;
25327;SDS011;13279;51.300;12.394;2022-07-23T09:00:21;12.80;;;9.97;;
25327;SDS011;13279;51.300;12.394;2022-07-23T09:02:50;15.60;;;12.03;;
25327;SDS011;13279;51.300;12.394;2022-07-23T09:05:18;15.93;;;11.10;;
25327;SDS011;13279;51.300;12.394;2022-07-23T09:10:45;15.03;;;11.53;;
25327;SDS011;13279;51.300;12.394;2022-07-23T09:13:25;16.17;;;10.97;;
25327;SDS011;13279;51.300;12.394;2022-07-23T09:15:56;13.03;;;10.57;;
25327;SDS011;13279;51.300;12.394;2022-07-23T09:18:29;18.43;;;11.53;;
25327;SDS011;13279;51.300;12.394;2022-07-23T09:21:11;15.63;;;10.63;;
25327;SDS011;13279;51.300;12.394;2022-07-23T09:23:45;16.57;;;10.93;;
25327;SDS011;13279;51.300;12.394;2022-07-23T09:26:18;14.97;;;11.33;;
25327;SDS011;13279;51.300;12.394;2022-07-23T09:28:58;12.53;;;10.40;;
25327;SDS011;13279;51.300;12.394;2022-07-23T09:31:31;12.77;;;10.03;;
25327;SDS011;13279;51.300;12.394;2022-07-23T09:34:11;18.23;;;10.33;;
25327;SDS011;13279;51.300;12.394;2022-07-23T09:36:41;12.33;;;9.87;;
25327;SDS011;13279;51.300;12.394;2022-07-23T09:39:24;19.80;;;11.57;;
25327;SDS011;13279;51.300;12.394;2022-07-23T09:41:53;13.67;;;10.80;;
25327;SDS011;13279;51.300;12.394;2022-07-23T09:44:21;14.50;;;9.83;;
25327;SDS011;13279;51.300;12.394;2022-07-23T09:46:49;13.30;;;9.57;;
25327;SDS011;13279;51.300;12.394;2022-07-23T09:49:24;13.20;;;9.40;;
25327;SDS011;13279;51.300;12.394;2022-07-23T09:51:52;12.00;;;9.73;;
25327;SDS011;13279;51.300;12.394;2022-07-23T09:54:31;13.40;;;9.57;;
25327;SDS011;13279;51.300;12.394;2022-07-23T09:57:02;18.33;;;9.23;;
25327;SDS011;13279;51.300;12.394;2022-07-23T09:59:33;15.03;;;9.73;;
25327;SDS011;13279;51.300;12.394;2022-07-23T10:02:02;14.90;;;9.33;;
25327;SDS011;13279;51.300;12.394;2022-07-23T10:04:39;12.70;;;9.37;;
25327;SDS011;13279;51.300;12.394;2022-07-23T10:07:16;11.30;;;8.63;;
25327;SDS011;13279;51.300;12.394;2022-07-23T10:10:07;16.03;;;8.83;;
25327;SDS011;13279;51.300;12.394;2022-07-23T10:12:53;12.63;;;9.60;;
25327;SDS011;13279;51.300;12.394;2022-07-23T10:15:53;13.07;;;8.50;;
25327;SDS011;13279;51.300;12.394;2022-07-23T10:18:21;18.17;;;7.93;;
25327;SDS011;13279;51.300;12.394;2022-07-23T10:20:49;9.50;;;7.10;;
25327;SDS011;13279;51.300;12.394;2022-07-23T10:23:19;13.30;;;8.20;;
25327;SDS011;13279;51.300;12.394;2022-07-23T10:25:56;11.67;;;7.73;;
25327;SDS011;13279;51.300;12.394;2022-07-23T10:28:46;13.43;;;7.97;;
25327;SDS011;13279;51.300;12.394;2022-07-23T10:31:35;14.63;;;8.97;;
25327;SDS011;13279;51.300;12.394;2022-07-23T10:34:15;19.47;;;8.67;;
25327;SDS011;13279;51.300;12.394;2022-07-23T10:36:49;8.57;;;7.37;;
25327;SDS011;13279;51.300;12.394;2022-07-23T10:39:22;9.00;;;7.57;;
25327;SDS011;13279;51.300;12.394;2022-07-23T10:42:07;12.83;;;9.07;;
25327;SDS011;13279;51.300;12.394;2022-07-23T10:44:39;17.53;;;8.93;;
25327;SDS011;13279;51.300;12.394;2022-07-23T10:47:10;15.77;;;8.23;;
25327;SDS011;13279;51.300;12.394;2022-07-23T10:50:20;14.90;;;7.87;;
25327;SDS011;13279;51.300;12.394;2022-07-23T10:53:09;12.93;;;8.90;;
25327;SDS011;13279;51.300;12.394;2022-07-23T10:55:40;12.67;;;8.30;;
25327;SDS011;13279;51.300;12.394;2022-07-23T10:58:19;14.23;;;9.40;;
25327;SDS011;13279;51.300;12.394;2022-07-23T11:00:48;15.10;;;9.50;;
25327;SDS011;13279;51.300;12.394;2022-07-23T11:03:31;16.00;;;10.33;;
25327;SDS011;13279;51.300;12.394;2022-07-23T11:06:01;19.20;;;11.07;;
25327;SDS011;13279;51.300;12.394;2022-07-23T11:08:30;20.20;;;12.10;;
25327;SDS011;13279;51.300;12.394;2022-07-23T11:11:08;14.73;;;11.70;;
25327;SDS011;13279;51.300;12.394;2022-07-23T11:13:38;17.23;;;11.60;;
25327;SDS011;13279;51.300;12.394;2022-07-23T11:16:17;18.80;;;12.77;;
25327;SDS011;13279;51.300;12.394;2022-07-23T11:21:48;16.83;;;12.03;;
25327;SDS011;13279;51.300;12.394;2022-07-23T11:24:20;22.73;;;13.73;;
25327;SDS011;13279;51.300;12.394;2022-07-23T11:26:52;18.30;;;11.63;;
25327;SDS011;13279;51.300;12.394;2022-07-23T11:29:37;16.13;;;10.80;;
25327;SDS011;13279;51.300;12.394;2022-07-23T11:32:19;17.30;;;12.10;;
25327;SDS011;13279;51.300;12.394;2022-07-23T11:35:20;13.77;;;11.27;;
25327;SDS011;13279;51.300;12.394;2022-07-23T11:37:51;18.47;;;12.47;;
25327;SDS011;13279;51.300;12.394;2022-07-23T11:40:24;15.10;;;11.43;;
25327;SDS011;13279;51.300;12.394;2022-07-23T11:42:54;19.23;;;12.57;;
25327;SDS011;13279;51.300;12.394;2022-07-23T11:45:25;18.17;;;11.20;;
25327;SDS011;13279;51.300;12.394;2022-07-23T11:47:57;14.97;;;11.30;;
25327;SDS011;13279;51.300;12.394;2022-07-23T11:50:26;16.23;;;11.47;;
25327;SDS011;13279;51.300;12.394;2022-07-23T11:52:54;18.37;;;11.70;;
25327;SDS011;13279;51.300;12.394;2022-07-23T11:55:22;20.47;;;12.87;;
25327;SDS011;13279;51.300;12.394;2022-07-23T11:57:51;22.43;;;11.13;;
25327;SDS011;13279;51.300;12.394;2022-07-23T12:00:19;14.90;;;10.63;;
25327;SDS011;13279;51.300;12.394;2022-07-23T12:02:49;18.63;;;10.63;;
25327;SDS011;13279;51.300;12.394;2022-07-23T12:05:19;16.07;;;10.47;;
25327;SDS011;13279;51.300;12.394;2022-07-23T12:07:50;19.03;;;12.50;;
25327;SDS011;13279;51.300;12.394;2022-07-23T12:10:19;15.37;;;11.03;;
25327;SDS011;13279;51.300;12.394;2022-07-23T12:12:49;13.47;;;10.63;;
25327;SDS011;13279;51.300;12.394;2022-07-23T12:15:18;25.37;;;11.13;;
25327;SDS011;13279;51.300;12.394;2022-07-23T12:17:48;14.77;;;10.10;;
25327;SDS011;13279;51.300;12.394;2022-07-23T12:20:18;13.13;;;10.57;;
25327;SDS011;13279;51.300;12.394;2022-07-23T12:22:48;15.90;;;10.37;;
25327;SDS011;13279;51.300;12.394;2022-07-23T12:25:19;18.87;;;10.50;;
25327;SDS011;13279;51.300;12.394;2022-07-23T12:27:58;14.47;;;10.90;;
25327;SDS011;13279;51.300;12.394;2022-07-23T12:30:28;16.63;;;11.10;;
25327;SDS011;13279;51.300;12.394;2022-07-23T12:32:59;14.90;;;10.53;;
25327;SDS011;13279;51.300;12.394;2022-07-23T12:35:30;16.13;;;11.67;;
25327;SDS011;13279;51.300;12.394;2022-07-23T12:38:05;12.27;;;10.40;;
25327;SDS011;13279;51.300;12.394;2022-07-23T12:40:35;17.67;;;11.10;;
25327;SDS011;13279;51.300;12.394;2022-07-23T12:43:08;17.57;;;11.00;;
25327;SDS011;13279;51.300;12.394;2022-07-23T12:45:44;19.33;;;11.03;;
25327;SDS011;13279;51.300;12.394;2022-07-23T12:48:17;16.93;;;10.67;;
25327;SDS011;13279;51.300;12.394;2022-07-23T12:50:51;15.43;;;11.27;;
25327;SDS011;13279;51.300;12.394;2022-07-23T12:53:22;13.83;;;10.80;;
25327;SDS011;13279;51.300;12.394;2022-07-23T12:55:56;20.07;;;12.83;;
25327;SDS011;13279;51.300;12.394;2022-07-23T12:58:26;14.70;;;11.33;;
25327;SDS011;13279;51.300;12.394;2022-07-23T13:01:01;18.23;;;12.83;;
25327;SDS011;13279;51.300;12.394;2022-07-23T13:03:31;14.63;;;10.53;;
25327;SDS011;13279;51.300;12.394;2022-07-23T13:06:01;12.83;;;9.80;;
25327;SDS011;13279;51.300;12.394;2022-07-23T13:08:32;16.47;;;11.10;;
25327;SDS011;13279;51.300;12.394;2022-07-23T13:11:01;12.47;;;10.37;;
25327;SDS011;13279;51.300;12.394;2022-07-23T13:13:29;13.27;;;10.43;;
25327;SDS011;13279;51.300;12.394;2022-07-23T13:15:58;15.07;;;11.00;;
25327;SDS011;13279;51.300;12.394;2022-07-23T13:18:26;16.57;;;10.73;;
25327;SDS011;13279;51.300;12.394;2022-07-23T13:20:55;11.43;;;8.83;;
25327;SDS011;13279;51.300;12.394;2022-07-23T13:23:24;13.77;;;9.20;;
25327;SDS011;13279;51.300;12.394;2022-07-23T13:25:53;9.37;;;8.00;;
25327;SDS011;13279;51.300;12.394;2022-07-23T13:28:22;8.77;;;6.70;;
25327;SDS011;13279;51.300;12.394;2022-07-23T13:30:50;10.25;;;7.35;;
25327;SDS011;13279;51.300;12.394;2022-07-23T13:33:18;9.75;;;6.65;;
25327;SDS011;13279;51.300;12.394;2022-07-23T13:35:48;7.55;;;6.82;;
25327;SDS011;13279;51.300;12.394;2022-07-23T13:38:17;7.82;;;7.05;;
25327;SDS011;13279;51.300;12.394;2022-07-23T13:40:46;7.15;;;6.53;;
25327;SDS011;13279;51.300;12.394;2022-07-23T13:43:17;8.77;;;6.32;;
25327;SDS011;13279;51.300;12.394;2022-07-23T13:45:46;7.00;;;6.05;;
25327;SDS011;13279;51.300;12.394;2022-07-23T13:48:14;9.02;;;6.68;;
25327;SDS011;13279;51.300;12.394;2022-07-23T13:50:43;10.93;;;6.90;;
25327;SDS011;13279;51.300;12.394;2022-07-23T13:53:12;8.50;;;6.30;;
25327;SDS011;13279;51.300;12.394;2022-07-23T13:55:41;6.85;;;6.15;;
25327;SDS011;13279;51.300;12.394;2022-07-23T13:58:09;12.63;;;7.70;;
25327;SDS011;13279;51.300;12.394;2022-07-23T14:00:41;8.50;;;6.57;;
25327;SDS011;13279;51.300;12.394;2022-07-23T14:03:10;8.40;;;6.63;;
25327;SDS011;13279;51.300;12.394;2022-07-23T14:05:38;9.63;;;6.50;;
25327;SDS011;13279;51.300;12.394;2022-07-23T14:08:06;8.80;;;6.50;;
25327;SDS011;13279;51.300;12.394;2022-07-23T14:10:33;9.10;;;7.13;;
25327;SDS011;13279;51.300;12.394;2022-07-23T14:13:01;10.57;;;6.45;;
25327;SDS011;13279;51.300;12.394;2022-07-23T14:15:30;8.75;;;6.28;;
25327;SDS011;13279;51.300;12.394;2022-07-23T14:18:00;7.72;;;6.43;;
25327;SDS011;13279;51.300;12.394;2022-07-23T14:20:27;7.47;;;6.55;;
25327;SDS011;13279;51.300;12.394;2022-07-23T14:22:55;10.25;;;7.07;;
25327;SDS011;13279;51.300;12.394;2022-07-23T14:25:26;11.35;;;7.47;;
25327;SDS011;13279;51.300;12.394;2022-07-23T14:27:53;7.53;;;6.38;;
25327;SDS011;13279;51.300;12.394;2022-07-23T14:30:21;7.30;;;5.90;;
25327;SDS011;13279;51.300;12.394;2022-07-23T14:32:50;8.25;;;6.57;;
25327;SDS011;13279;51.300;12.394;2022-07-23T14:35:19;7.18;;;6.47;;
25327;SDS011;13279;51.300;12.394;2022-07-23T14:37:47;10.20;;;6.47;;
25327;SDS011;13279;51.300;12.394;2022-07-23T14:40:15;7.72;;;6.10;;
25327;SDS011;13279;51.300;12.394;2022-07-23T14:42:43;9.13;;;7.40;;
25327;SDS011;13279;51.300;12.394;2022-07-23T14:45:11;7.57;;;6.53;;
25327;SDS011;13279;51.300;12.394;2022-07-23T14:47:39;7.30;;;6.60;;
25327;SDS011;13279;51.300;12.394;2022-07-23T14:50:07;9.13;;;6.75;;
25327;SDS011;13279;51.300;12.394;2022-07-23T14:52:36;7.35;;;6.55;;
25327;SDS011;13279;51.300;12.394;2022-07-23T14:55:04;7.55;;;6.50;;
25327;SDS011;13279;51.300;12.394;2022-07-23T14:57:33;10.05;;;6.68;;
25327;SDS011;13279;51.300;12.394;2022-07-23T15:00:01;8.52;;;6.85;;
25327;SDS011;13279;51.300;12.394;2022-07-23T15:02:29;7.45;;;6.25;;
25327;SDS011;13279;51.300;12.394;2022-07-23T15:04:57;9.35;;;7.00;;
25327;SDS011;13279;51.300;12.394;2022-07-23T15:07:26;8.70;;;7.15;;
25327;SDS011;13279;51.300;12.394;2022-07-23T15:09:56;8.10;;;6.90;;
25327;SDS011;13279;51.300;12.394;2022-07-23T15:12:24;10.85;;;7.43;;
25327;SDS011;13279;51.300;12.394;2022-07-23T15:14:52;10.07;;;8.23;;
25327;SDS011;13279;51.300;12.394;2022-07-23T15:17:19;13.25;;;7.13;;
25327;SDS011;13279;51.300;12.394;2022-07-23T15:19:47;8.15;;;6.20;;
25327;SDS011;13279;51.300;12.394;2022-07-23T15:22:15;8.98;;;6.32;;
25327;SDS011;13279;51.300;12.394;2022-07-23T15:24:42;8.00;;;7.00;;
25327;SDS011;13279;51.300;12.394;2022-07-23T15:27:11;9.38;;;7.15;;
25327;SDS011;13279;51.300;12.394;2022-07-23T15:29:39;10.15;;;7.70;;
25327;SDS011;13279;51.300;12.394;2022-07-23T15:32:07;8.63;;;6.85;;
25327;SDS011;13279;51.300;12.394;2022-07-23T15:34:36;10.48;;;7.15;;
25327;SDS011;13279;51.300;12.394;2022-07-23T15:37:03;10.85;;;6.88;;
25327;SDS011;13279;51.300;12.394;2022-07-23T15:39:32;6.85;;;6.15;;
25327;SDS011;13279;51.300;12.394;2022-07-23T15:42:00;10.15;;;7.40;;
25327;SDS011;13279;51.300;12.394;2022-07-23T15:44:30;8.45;;;7.60;;
25327;SDS011;13279;51.300;12.394;2022-07-23T15:46:57;7.55;;;6.65;;
25327;SDS011;13279;51.300;12.394;2022-07-23T15:49:25;9.50;;;7.90;;
25327;SDS011;13279;51.300;12.394;2022-07-23T15:51:54;9.10;;;8.02;;
25327;SDS011;13279;51.300;12.394;2022-07-23T15:54:22;9.15;;;8.05;;
25327;SDS011;13279;51.300;12.394;2022-07-23T15:56:49;8.15;;;7.32;;
25327;SDS011;13279;51.300;12.394;2022-07-23T15:59:17;10.30;;;8.73;;
25327;SDS011;13279;51.300;12.394;2022-07-23T16:01:47;12.15;;;8.85;;
25327;SDS011;13279;51.300;12.394;2022-07-23T16:04:14;10.80;;;7.65;;
25327;SDS011;13279;51.300;12.394;2022-07-23T16:06:42;9.77;;;7.55;;
25327;SDS011;13279;51.300;12.394;2022-07-23T16:09:09;9.35;;;7.53;;
25327;SDS011;13279;51.300;12.394;2022-07-23T16:11:37;8.63;;;7.15;;
25327;SDS011;13279;51.300;12.394;2022-07-23T16:14:05;10.70;;;7.32;;
25327;SDS011;13279;51.300;12.394;2022-07-23T16:16:32;7.87;;;7.17;;
25327;SDS011;13279;51.300;12.394;2022-07-23T16:19:01;10.90;;;8.30;;
25327;SDS011;13279;51.300;12.394;2022-07-23T16:21:29;9.27;;;7.70;;
25327;SDS011;13279;51.300;12.394;2022-07-23T16:23:56;10.50;;;7.70;;
25327;SDS011;13279;51.300;12.394;2022-07-23T16:26:24;9.70;;;7.63;;
25327;SDS011;13279;51.300;12.394;2022-07-23T16:28:51;10.10;;;7.23;;
25327;SDS011;13279;51.300;12.394;2022-07-23T16:31:19;7.70;;;7.07;;
25327;SDS011;13279;51.300;12.394;2022-07-23T16:33:47;8.27;;;6.80;;
25327;SDS011;13279;51.300;12.394;2022-07-23T16:36:15;10.53;;;6.47;;
25327;SDS011;13279;51.300;12.394;2022-07-23T16:38:44;8.90;;;6.60;;
25327;SDS011;13279;51.300;12.394;2022-07-23T16:41:12;9.00;;;6.83;;
25327;SDS011;13279;51.300;12.394;2022-07-23T16:43:40;9.43;;;7.50;;
25327;SDS011;13279;51.300;12.394;2022-07-23T16:46:07;7.93;;;7.13;;
25327;SDS011;13279;51.300;12.394;2022-07-23T16:48:34;11.57;;;6.67;;
25327;SDS011;13279;51.300;12.394;2022-07-23T16:51:03;6.73;;;6.10;;
25327;SDS011;13279;51.300;12.394;2022-07-23T16:53:32;6.73;;;5.83;;
25327;SDS011;13279;51.300;12.394;2022-07-23T16:56:00;7.17;;;6.00;;
25327;SDS011;13279;51.300;12.394;2022-07-23T16:58:28;7.00;;;5.13;;
25327;SDS011;13279;51.300;12.394;2022-07-23T17:00:55;6.50;;;5.10;;
25327;SDS011;13279;51.300;12.394;2022-07-23T17:03:23;6.93;;;5.50;;
25327;SDS011;13279;51.300;12.394;2022-07-23T17:05:54;7.40;;;5.87;;
25327;SDS011;13279;51.300;12.394;2022-07-23T17:08:22;9.23;;;6.07;;
25327;SDS011;13279;51.300;12.394;2022-07-23T17:10:51;7.73;;;6.17;;
25327;SDS011;13279;51.300;12.394;2022-07-23T17:13:19;14.13;;;6.47;;
25327;SDS011;13279;51.300;12.394;2022-07-23T17:15:46;7.27;;;6.57;;
25327;SDS011;13279;51.300;12.394;2022-07-23T17:18:13;7.97;;;6.73;;
25327;SDS011;13279;51.300;12.394;2022-07-23T17:20:41;8.00;;;6.63;;
25327;SDS011;13279;51.300;12.394;2022-07-23T17:23:08;6.77;;;6.03;;
25327;SDS011;13279;51.300;12.394;2022-07-23T17:25:37;10.20;;;6.20;;
25327;SDS011;13279;51.300;12.394;2022-07-23T17:28:06;8.13;;;6.07;;
25327;SDS011;13279;51.300;12.394;2022-07-23T17:30:34;7.30;;;6.60;;
25327;SDS011;13279;51.300;12.394;2022-07-23T17:33:01;8.17;;;6.93;;
25327;SDS011;13279;51.300;12.394;2022-07-23T17:35:29;8.10;;;6.73;;
25327;SDS011;13279;51.300;12.394;2022-07-23T17:37:56;9.60;;;6.23;;
25327;SDS011;13279;51.300;12.394;2022-07-23T17:40:24;8.27;;;6.13;;
25327;SDS011;13279;51.300;12.394;2022-07-23T17:42:52;8.63;;;6.10;;
25327;SDS011;13279;51.300;12.394;2022-07-23T17:45:21;7.60;;;6.20;;
25327;SDS011;13279;51.300;12.394;2022-07-23T17:47:48;9.37;;;7.07;;
25327;SDS011;13279;51.300;12.394;2022-07-23T17:50:16;13.27;;;6.50;;
25327;SDS011;13279;51.300;12.394;2022-07-23T17:52:44;6.77;;;5.87;;
25327;SDS011;13279;51.300;12.394;2022-07-23T17:55:15;8.27;;;6.03;;
25327;SDS011;13279;51.300;12.394;2022-07-23T17:57:43;6.30;;;5.70;;
25327;SDS011;13279;51.300;12.394;2022-07-23T18:00:12;6.77;;;6.07;;
25327;SDS011;13279;51.300;12.394;2022-07-23T18:02:42;8.37;;;6.10;;